Time;durP1;ratioP1;P1;durP2;ratioP2;P2;SDS_P1;SDS_P2;PMS_P1;PMS_P2;Temp;Humidity;BMP_temperature;BMP_pressure;BME280_temperature;BME280_humidity;BME280_pressure;Samples;Min_cycle;Max_cycle;Signal;HPM_P1;HPM_P2
2021/04/16 00:01:33;;;;;;;3.97;2.33;;;6.20;92.40;;;;;;5045891;28;20029;-62
2021/04/16 00:03:59;;;;;;;3.08;2.13;;;6.20;92.50;;;;;;5061954;28;20028;-63
2021/04/16 00:06:24;;;;;;;2.42;1.73;;;6.20;92.70;;;;;;5063124;28;20047;-63
2021/04/16 00:08:51;;;;;;;2.42;1.70;;;6.20;93.00;;;;;;5063616;28;20499;-62
2021/04/16 00:11:26;;;;;;;3.28;2.03;;;6.10;93.00;;;;;;5102398;27;20365;-63
2021/04/16 00:13:52;;;;;;;3.20;2.05;;;6.10;93.20;;;;;;5101819;28;20028;-63
2021/04/16 00:16:22;;;;;;;4.15;2.17;;;6.00;93.40;;;;;;5101729;28;20791;-63
2021/04/16 00:18:49;;;;;;;3.90;2.22;;;5.90;93.00;;;;;;5101967;28;20024;-63
2021/04/16 00:21:15;;;;;;;3.13;2.30;;;5.90;93.00;;;;;;5099574;28;20020;-63
2021/04/16 00:23:41;;;;;;;5.78;2.33;;;6.00;93.00;;;;;;5101979;28;20099;-62
2021/04/16 00:26:08;;;;;;;4.13;2.30;;;6.00;93.10;;;;;;5101854;28;20562;-62
2021/04/16 00:28:35;;;;;;;2.88;2.15;;;5.90;93.10;;;;;;5100137;28;20065;-62
2021/04/16 00:31:12;;;;;;;3.92;2.53;;;5.90;93.10;;;;;;5101778;28;20077;-62
2021/04/16 00:33:38;;;;;;;2.60;2.05;;;5.80;93.10;;;;;;5100962;28;20394;-62
2021/04/16 00:36:04;;;;;;;6.68;3.25;;;5.80;93.30;;;;;;5101112;28;20034;-62
2021/04/16 00:38:31;;;;;;;4.25;2.80;;;5.80;93.30;;;;;;5099462;28;20109;-63
2021/04/16 00:40:59;;;;;;;3.15;2.05;;;5.90;93.60;;;;;;5101388;28;20028;-63
2021/04/16 00:43:29;;;;;;;4.05;2.65;;;5.90;93.10;;;;;;5101424;28;20043;-63
2021/04/16 00:46:22;;;;;;;3.70;2.50;;;5.90;93.20;;;;;;5101616;28;20170;-63
2021/04/16 00:48:50;;;;;;;4.47;2.67;;;5.90;93.10;;;;;;5056874;28;20052;-62
2021/04/16 00:51:40;;;;;;;5.05;2.60;;;5.90;93.20;;;;;;5060736;28;20037;-63
2021/04/16 00:54:13;;;;;;;5.13;2.63;;;5.70;93.40;;;;;;5060586;28;20112;-63
2021/04/16 00:56:39;;;;;;;4.53;2.60;;;5.70;93.40;;;;;;5060800;28;20025;-63
2021/04/16 00:59:05;;;;;;;4.50;2.53;;;5.80;93.20;;;;;;5092456;28;20553;-62
2021/04/16 01:01:31;;;;;;;5.75;3.10;;;5.80;93.50;;;;;;5101537;28;20099;-62
2021/04/16 01:03:58;;;;;;;5.50;2.88;;;5.70;93.70;;;;;;5101313;28;20030;-62
2021/04/16 01:06:24;;;;;;;4.95;2.75;;;5.60;93.70;;;;;;5100517;28;20573;-62
2021/04/16 01:08:52;;;;;;;8.23;3.78;;;5.60;93.80;;;;;;5098660;28;20031;-63
2021/04/16 01:11:18;;;;;;;8.93;3.65;;;5.60;93.70;;;;;;5100482;28;20060;-63
2021/04/16 01:13:46;;;;;;;9.18;3.92;;;5.60;93.80;;;;;;5081833;28;20343;-63
2021/04/16 01:16:15;;;;;;;10.55;4.07;;;5.60;93.90;;;;;;5079382;28;20085;-63
2021/04/16 01:18:46;;;;;;;8.80;3.78;;;5.50;94.00;;;;;;5081171;28;20016;-63
2021/04/16 01:21:15;;;;;;;10.30;3.78;;;5.60;93.80;;;;;;5075875;28;20476;-63
2021/04/16 01:23:51;;;;;;;8.60;4.68;;;5.50;94.00;;;;;;5067717;28;20035;-63
2021/04/16 01:26:24;;;;;;;10.02;3.80;;;5.40;94.20;;;;;;5067526;28;20024;-62
2021/04/16 01:28:50;;;;;;;8.50;3.30;;;5.30;94.30;;;;;;5068576;28;20101;-63
2021/04/16 01:31:23;;;;;;;7.68;3.25;;;5.30;94.40;;;;;;5067139;28;20451;-63
2021/04/16 01:33:49;;;;;;;3.95;2.60;;;5.40;94.30;;;;;;5067434;28;20074;-63
2021/04/16 01:36:25;;;;;;;4.80;2.78;;;5.30;94.40;;;;;;5066410;28;20564;-63
2021/04/16 01:38:51;;;;;;;4.53;2.47;;;5.40;94.30;;;;;;5066175;28;20032;-64
2021/04/16 01:41:18;;;;;;;4.70;2.95;;;5.30;94.40;;;;;;5065431;28;20354;-64
2021/04/16 01:43:54;;;;;;;5.43;2.60;;;5.40;94.40;;;;;;5065626;28;20032;-63
2021/04/16 01:46:21;;;;;;;3.80;2.25;;;5.50;94.30;;;;;;5065887;28;20021;-63
2021/04/16 01:48:54;;;;;;;3.67;2.28;;;5.50;94.30;;;;;;5065649;28;20033;-63
2021/04/16 01:51:33;;;;;;;4.88;2.83;;;5.40;94.30;;;;;;5066405;28;20116;-63
2021/04/16 01:54:12;;;;;;;5.05;2.33;;;5.50;94.50;;;;;;5066942;28;20028;-63
2021/04/16 01:56:41;;;;;;;5.05;2.63;;;5.30;94.50;;;;;;5066937;28;20029;-63
2021/04/16 01:59:16;;;;;;;6.35;2.95;;;5.40;94.60;;;;;;5066641;28;20103;-63
2021/04/16 02:01:45;;;;;;;3.83;2.05;;;5.30;94.60;;;;;;5066753;28;20024;-63
2021/04/16 02:04:12;;;;;;;6.10;2.50;;;5.30;94.50;;;;;;5066238;28;20499;-63
2021/04/16 02:06:38;;;;;;;3.33;2.38;;;5.40;94.60;;;;;;5066569;28;20025;-63
2021/04/16 02:09:13;;;;;;;3.55;2.10;;;5.50;94.40;;;;;;5065978;28;20039;-63
2021/04/16 02:11:41;;;;;;;2.70;1.80;;;5.40;94.50;;;;;;5066578;28;20032;-63
2021/04/16 02:14:15;;;;;;;2.90;1.85;;;5.40;94.80;;;;;;5066418;28;20023;-63
2021/04/16 02:16:42;;;;;;;3.13;1.90;;;5.30;94.80;;;;;;5066668;28;20025;-63
2021/04/16 02:19:08;;;;;;;2.92;1.92;;;5.20;95.10;;;;;;5066210;28;20033;-63
2021/04/16 02:21:35;;;;;;;2.35;1.60;;;5.20;95.00;;;;;;5066839;28;20503;-63
2021/04/16 02:24:02;;;;;;;6.38;2.08;;;5.20;95.30;;;;;;5066452;28;20019;-63
2021/04/16 02:26:28;;;;;;;2.70;2.00;;;5.10;95.60;;;;;;5066297;28;20379;-63
2021/04/16 02:28:55;;;;;;;3.65;1.80;;;5.00;95.60;;;;;;5067271;28;20082;-62
2021/04/16 02:31:20;;;;;;;2.83;2.00;;;5.00;95.70;;;;;;5067277;28;20033;-62
2021/04/16 02:33:46;;;;;;;4.50;1.95;;;5.00;95.80;;;;;;5065185;28;20024;-62
2021/04/16 02:36:13;;;;;;;3.15;2.03;;;4.90;96.10;;;;;;5066278;28;20032;-63
2021/04/16 02:38:40;;;;;;;2.20;1.80;;;4.80;96.70;;;;;;5066219;28;20032;-63
2021/04/16 02:41:06;;;;;;;3.65;2.17;;;4.80;97.50;;;;;;5066158;28;20456;-62
2021/04/16 02:43:33;;;;;;;3.17;2.03;;;4.80;97.70;;;;;;5066195;28;20024;-63
2021/04/16 02:46:00;;;;;;;2.30;1.88;;;4.80;98.20;;;;;;5066032;28;20036;-63
2021/04/16 02:48:25;;;;;;;3.80;2.20;;;4.60;98.70;;;;;;5065700;28;20031;-63
2021/04/16 02:50:52;;;;;;;3.10;2.38;;;4.60;99.20;;;;;;5066566;28;20032;-63
2021/04/16 02:53:18;;;;;;;4.45;2.40;;;4.50;99.10;;;;;;5065572;28;20017;-63
2021/04/16 02:55:43;;;;;;;3.60;2.33;;;4.50;98.80;;;;;;5066034;28;20032;-63
2021/04/16 02:58:11;;;;;;;6.05;2.60;;;4.40;98.40;;;;;;5065665;28;20032;-63
2021/04/16 03:00:36;;;;;;;2.88;2.20;;;4.30;98.30;;;;;;5065851;28;20434;-63
2021/04/16 03:03:03;;;;;;;3.72;2.30;;;4.30;98.20;;;;;;5066030;28;20024;-63
2021/04/16 03:05:28;;;;;;;3.10;1.90;;;4.30;98.40;;;;;;5065642;28;20029;-63
2021/04/16 03:07:55;;;;;;;3.67;2.75;;;4.40;98.20;;;;;;5065590;28;20028;-63
2021/04/16 03:10:33;;;;;;;5.28;2.85;;;4.30;98.40;;;;;;5065783;28;20082;-63
2021/04/16 03:12:59;;;;;;;4.28;2.80;;;4.40;98.50;;;;;;5065612;28;20031;-63
2021/04/16 03:15:25;;;;;;;3.40;2.10;;;4.30;98.70;;;;;;5065342;28;20518;-63
2021/04/16 03:17:51;;;;;;;4.22;2.33;;;4.30;99.00;;;;;;5065968;28;20020;-63
2021/04/16 03:20:19;;;;;;;3.08;2.03;;;4.10;99.30;;;;;;5065091;28;20039;-63
2021/04/16 03:22:46;;;;;;;4.00;2.70;;;4.30;99.60;;;;;;5065496;28;20040;-63
2021/04/16 03:25:14;;;;;;;3.40;2.58;;;4.20;99.30;;;;;;5065069;28;20037;-63
2021/04/16 03:27:41;;;;;;;6.57;3.00;;;4.10;99.40;;;;;;5065423;28;20024;-63
2021/04/16 03:30:12;;;;;;;4.97;2.78;;;3.90;99.80;;;;;;5065379;28;20394;-63
2021/04/16 03:32:37;;;;;;;3.20;2.30;;;4.00;99.90;;;;;;5065301;28;20395;-64
2021/04/16 03:35:04;;;;;;;4.20;2.25;;;4.10;99.90;;;;;;5064986;28;20100;-63
2021/04/16 03:37:31;;;;;;;3.45;2.10;;;4.30;99.70;;;;;;5065295;28;20029;-63
2021/04/16 03:39:57;;;;;;;5.40;2.08;;;4.40;99.40;;;;;;5064938;28;20461;-63
2021/04/16 03:42:23;;;;;;;2.72;2.22;;;4.30;99.70;;;;;;5065612;28;20029;-63
2021/04/16 03:44:48;;;;;;;5.60;3.25;;;4.20;99.90;;;;;;5065254;28;20395;-63
2021/04/16 03:47:17;;;;;;;4.60;2.25;;;4.20;99.90;;;;;;5064723;28;20494;-62
2021/04/16 03:49:44;;;;;;;2.55;2.03;;;4.30;99.90;;;;;;5064725;28;20028;-63
2021/04/16 03:52:10;;;;;;;3.35;1.95;;;4.30;99.90;;;;;;5064695;28;20020;-63
2021/04/16 03:54:36;;;;;;;3.85;1.80;;;4.20;99.90;;;;;;5065179;28;20454;-63
2021/04/16 03:57:05;;;;;;;2.78;1.80;;;4.10;99.90;;;;;;5065124;28;20025;-63
2021/04/16 03:59:30;;;;;;;2.42;1.60;;;3.90;99.90;;;;;;5064868;28;20033;-63
2021/04/16 04:01:56;;;;;;;3.05;2.00;;;4.00;99.90;;;;;;5064869;28;20064;-62
2021/04/16 04:04:22;;;;;;;2.53;1.60;;;4.00;99.90;;;;;;5065097;28;20499;-63
2021/04/16 04:06:50;;;;;;;4.30;1.80;;;4.00;99.90;;;;;;5064562;28;20048;-62
2021/04/16 04:09:16;;;;;;;3.35;2.00;;;3.80;99.90;;;;;;5064362;28;20143;-63
2021/04/16 04:11:42;;;;;;;4.80;2.45;;;3.80;99.90;;;;;;5065137;28;20028;-63
2021/04/16 04:14:08;;;;;;;6.40;2.60;;;3.80;99.90;;;;;;5064316;28;20025;-63
2021/04/16 04:16:54;;;;;;;5.15;2.58;;;3.80;99.90;;;;;;5065377;28;20568;-63
2021/04/16 04:19:22;;;;;;;7.10;3.40;;;4.00;99.90;;;;;;5064995;28;20025;-62
2021/04/16 04:21:52;;;;;;;5.55;2.90;;;3.80;99.90;;;;;;5064851;28;20009;-62
2021/04/16 04:24:19;;;;;;;5.60;2.58;;;3.70;99.90;;;;;;5064688;28;20020;-63
2021/04/16 04:26:45;;;;;;;7.57;2.50;;;3.70;99.90;;;;;;5064654;28;20481;-62
2021/04/16 04:29:13;;;;;;;6.10;3.28;;;3.80;99.90;;;;;;5064333;28;20064;-63
2021/04/16 04:31:47;;;;;;;5.90;2.70;;;3.70;99.90;;;;;;5065694;28;20719;-63
2021/04/16 04:34:18;;;;;;;5.35;2.80;;;3.90;99.90;;;;;;5065570;28;20056;-63
2021/04/16 04:36:44;;;;;;;7.88;3.83;;;3.80;99.90;;;;;;5066125;28;20514;-63
2021/04/16 04:39:12;;;;;;;6.35;3.22;;;3.70;99.90;;;;;;5065390;28;20025;-63
2021/04/16 04:41:39;;;;;;;7.10;3.65;;;3.80;99.90;;;;;;5065748;28;20398;-63
2021/04/16 04:44:05;;;;;;;8.88;3.13;;;3.80;99.90;;;;;;5063924;28;20414;-62
2021/04/16 04:46:30;;;;;;;4.85;2.80;;;3.80;99.90;;;;;;5065854;28;20040;-63
2021/04/16 04:48:56;;;;;;;5.57;2.90;;;3.80;99.90;;;;;;5065434;28;20064;-62
2021/04/16 04:51:22;;;;;;;4.13;2.30;;;3.80;99.90;;;;;;5066347;28;20028;-63
2021/04/16 04:53:47;;;;;;;4.05;2.58;;;3.70;99.90;;;;;;5066000;28;20056;-63
2021/04/16 04:56:13;;;;;;;4.20;2.30;;;3.70;99.90;;;;;;5066308;28;20024;-62
2021/04/16 04:58:39;;;;;;;4.25;2.35;;;3.70;99.90;;;;;;5069712;28;20093;-63
2021/04/16 05:01:04;;;;;;;2.47;2.08;;;3.70;99.90;;;;;;5068815;28;20096;-63
2021/04/16 05:03:30;;;;;;;3.92;2.20;;;3.70;99.90;;;;;;5069040;28;20514;-63
2021/04/16 05:05:55;;;;;;;3.53;2.10;;;3.60;99.90;;;;;;5068100;28;20518;-63
2021/04/16 05:08:21;;;;;;;5.80;2.90;;;3.70;99.90;;;;;;5067882;28;20036;-63
2021/04/16 05:10:48;;;;;;;4.40;2.53;;;3.50;99.90;;;;;;5068102;28;20028;-63
2021/04/16 05:13:13;;;;;;;4.57;2.33;;;3.60;99.90;;;;;;5067567;28;20036;-63
2021/04/16 05:15:39;;;;;;;6.20;2.72;;;3.60;99.90;;;;;;5067659;28;20025;-64
2021/04/16 05:18:06;;;;;;;4.78;3.00;;;3.60;99.90;;;;;;5068292;28;20024;-63
2021/04/16 05:20:31;;;;;;;6.32;3.10;;;3.70;99.90;;;;;;5068204;28;20023;-62
2021/04/16 05:22:57;;;;;;;5.30;3.13;;;3.60;99.90;;;;;;5067722;28;20029;-63
2021/04/16 05:25:22;;;;;;;6.95;2.30;;;3.70;99.90;;;;;;5067876;28;20414;-62
2021/04/16 05:27:49;;;;;;;3.88;2.67;;;3.70;99.90;;;;;;5068016;28;20029;-62
2021/04/16 05:30:16;;;;;;;3.35;2.28;;;3.60;99.90;;;;;;5067285;28;20028;-62
2021/04/16 05:32:41;;;;;;;3.22;2.10;;;3.70;99.90;;;;;;5067238;28;20012;-62
2021/04/16 05:35:09;;;;;;;6.28;2.50;;;3.70;99.90;;;;;;5067289;28;20126;-63
2021/04/16 05:37:34;;;;;;;2.28;1.80;;;3.70;99.90;;;;;;5067604;28;20071;-55
2021/04/16 05:40:00;;;;;;;3.97;1.80;;;3.70;99.90;;;;;;5065812;28;20052;-55
2021/04/16 05:42:27;;;;;;;3.47;2.10;;;3.80;99.90;;;;;;5067177;28;20036;-56
2021/04/16 05:44:54;;;;;;;6.00;2.40;;;3.70;99.90;;;;;;5068071;28;20086;-55
2021/04/16 05:47:20;;;;;;;2.95;1.70;;;3.70;99.90;;;;;;5067204;28;20032;-55
2021/04/16 05:49:45;;;;;;;2.85;2.30;;;3.70;99.90;;;;;;5067238;28;20085;-55
2021/04/16 05:52:12;;;;;;;4.13;2.67;;;3.70;99.90;;;;;;5066932;28;20025;-55
2021/04/16 05:54:38;;;;;;;4.28;2.75;;;3.70;99.90;;;;;;5067045;28;20111;-55
2021/04/16 05:57:04;;;;;;;4.82;2.70;;;3.60;99.90;;;;;;5066876;28;20082;-55
2021/04/16 05:59:29;;;;;;;3.85;2.67;;;3.60;99.90;;;;;;5067114;28;20028;-55
2021/04/16 06:01:55;;;;;;;8.88;4.38;;;3.70;99.90;;;;;;5066313;28;20090;-55
2021/04/16 06:04:23;;;;;;;10.23;4.50;;;3.70;99.90;;;;;;5068743;28;20495;-56
2021/04/16 06:06:48;;;;;;;7.68;4.45;;;3.80;99.90;;;;;;5067769;28;20570;-56
2021/04/16 06:09:15;;;;;;;9.77;4.93;;;3.80;99.90;;;;;;5052436;28;20104;-55
2021/04/16 06:11:40;;;;;;;9.23;4.88;;;3.90;99.90;;;;;;5068261;28;20052;-55
2021/04/16 06:14:06;;;;;;;12.10;5.30;;;3.90;99.90;;;;;;5067946;28;20055;-56
2021/04/16 06:16:33;;;;;;;8.88;4.60;;;3.80;99.90;;;;;;5068166;28;20024;-55
2021/04/16 06:18:58;;;;;;;10.43;4.72;;;3.90;99.90;;;;;;5067974;28;20485;-54
2021/04/16 06:21:24;;;;;;;8.48;3.95;;;3.90;99.90;;;;;;5065883;28;20036;-55
2021/04/16 06:23:50;;;;;;;8.25;3.83;;;4.10;99.90;;;;;;5048624;28;20065;-55
2021/04/16 06:26:16;;;;;;;8.00;3.97;;;4.10;99.90;;;;;;5047772;28;20040;-55
2021/04/16 06:28:42;;;;;;;10.68;4.93;;;4.00;99.90;;;;;;5048259;28;20108;-55
2021/04/16 06:31:09;;;;;;;8.45;4.10;;;4.00;99.90;;;;;;5047142;28;20521;-55
2021/04/16 06:33:38;;;;;;;9.50;4.60;;;4.00;99.90;;;;;;5048074;28;20146;-55
2021/04/16 06:36:06;;;;;;;9.82;5.07;;;4.10;99.90;;;;;;5047941;28;20025;-56
2021/04/16 06:38:36;;;;;;;12.85;7.07;;;4.20;99.90;;;;;;5048129;28;20044;-56
2021/04/16 06:41:10;;;;;;;9.27;5.25;;;4.40;99.90;;;;;;5060506;28;20487;-56
2021/04/16 06:43:46;;;;;;;5.90;4.00;;;4.40;99.90;;;;;;5066052;28;20593;-55
2021/04/16 06:46:17;;;;;;;4.88;3.65;;;4.30;99.90;;;;;;5047196;28;20515;-56
2021/04/16 06:48:43;;;;;;;5.03;3.35;;;4.50;99.90;;;;;;5047750;28;20410;-56
2021/04/16 06:51:10;;;;;;;5.05;2.72;;;4.50;99.90;;;;;;5058887;28;20108;-55
2021/04/16 06:53:57;;;;;;;3.60;2.65;;;4.50;99.90;;;;;;5066657;28;20108;-55
2021/04/16 06:56:42;;;;;;;7.95;3.17;;;4.40;99.90;;;;;;5059468;28;20100;-55
2021/04/16 06:59:23;;;;;;;4.80;3.10;;;4.30;99.90;;;;;;5067348;28;20020;-54
2021/04/16 07:02:02;;;;;;;5.85;3.13;;;4.20;99.90;;;;;;5066367;28;20024;-55
2021/04/16 07:04:52;;;;;;;3.40;2.70;;;4.20;99.90;;;;;;5047093;28;20029;-55
2021/04/16 07:07:23;;;;;;;4.78;3.50;;;4.40;99.90;;;;;;5057622;28;20421;-55
2021/04/16 07:09:59;;;;;;;3.78;2.90;;;4.50;99.90;;;;;;5066914;28;20078;-55
2021/04/16 07:12:25;;;;;;;4.53;2.83;;;4.60;99.90;;;;;;5065319;28;20386;-55
2021/04/16 07:14:52;;;;;;;4.65;3.08;;;4.60;99.90;;;;;;5067837;28;20568;-55
2021/04/16 07:17:21;;;;;;;5.78;3.28;;;4.60;99.90;;;;;;5064774;28;20033;-55
2021/04/16 07:19:48;;;;;;;4.15;2.60;;;4.70;99.90;;;;;;5064270;28;20024;-55
2021/04/16 07:22:22;;;;;;;2.58;2.35;;;4.60;99.90;;;;;;5047042;28;20031;-56
2021/04/16 07:24:51;;;;;;;3.28;2.38;;;4.80;99.90;;;;;;5047068;28;20075;-55
2021/04/16 07:27:41;;;;;;;3.28;2.30;;;5.00;99.90;;;;;;5046211;28;20036;-55
2021/04/16 07:30:08;;;;;;;4.35;2.85;;;4.80;99.90;;;;;;5050317;28;20036;-55
2021/04/16 07:32:41;;;;;;;2.95;2.42;;;5.00;99.90;;;;;;5066502;28;20585;-56
2021/04/16 07:35:34;;;;;;;3.58;2.63;;;5.10;99.90;;;;;;5066526;28;20384;-55
2021/04/16 07:38:05;;;;;;;3.38;2.47;;;5.20;99.90;;;;;;5064025;28;20589;-55
2021/04/16 07:40:44;;;;;;;3.25;2.33;;;5.10;99.90;;;;;;5065630;28;20032;-55
2021/04/16 07:43:30;;;;;;;3.10;2.38;;;5.00;99.90;;;;;;5066170;28;20033;-55
2021/04/16 07:45:55;;;;;;;3.30;2.42;;;5.10;99.90;;;;;;5063804;28;20045;-55
2021/04/16 07:48:33;;;;;;;3.60;2.33;;;5.20;99.90;;;;;;5065185;28;20031;-55
2021/04/16 07:51:02;;;;;;;3.80;2.47;;;5.30;99.90;;;;;;5066457;28;20120;-55
2021/04/16 07:53:31;;;;;;;5.38;3.00;;;5.40;99.90;;;;;;5052023;28;20592;-55
2021/04/16 07:56:10;;;;;;;3.45;2.70;;;5.20;99.90;;;;;;5058111;28;20025;-55
2021/04/16 07:58:37;;;;;;;3.42;2.47;;;5.20;99.90;;;;;;5066809;28;20028;-55
2021/04/16 08:01:21;;;;;;;3.28;2.03;;;5.20;99.90;;;;;;5065084;28;20051;-55
2021/04/16 08:03:50;;;;;;;4.28;2.40;;;5.60;99.90;;;;;;5066976;28;20039;-55
2021/04/16 08:06:31;;;;;;;4.13;3.22;;;5.60;99.90;;;;;;5055436;28;20519;-54
2021/04/16 08:08:57;;;;;;;4.63;2.70;;;5.40;99.90;;;;;;5062549;28;21205;-56
2021/04/16 08:11:29;;;;;;;7.97;4.85;;;5.40;99.90;;;;;;5063165;28;20031;-54
2021/04/16 08:14:05;;;;;;;10.65;5.10;;;5.50;99.90;;;;;;5064878;28;20040;-55
2021/04/16 08:16:35;;;;;;;8.82;4.72;;;5.30;99.90;;;;;;5059525;28;20051;-55
2021/04/16 08:19:21;;;;;;;6.28;4.35;;;5.40;99.90;;;;;;5053858;28;20095;-56
2021/04/16 08:22:00;;;;;;;5.10;3.28;;;5.30;99.90;;;;;;5060717;28;20020;-54
2021/04/16 08:24:29;;;;;;;6.15;3.50;;;5.50;99.90;;;;;;5064372;28;20460;-54
2021/04/16 08:27:04;;;;;;;5.28;2.97;;;5.50;99.90;;;;;;5065961;28;20351;-54
2021/04/16 08:29:34;;;;;;;4.93;3.17;;;5.70;99.90;;;;;;5064233;28;20029;-53
2021/04/16 08:32:03;;;;;;;4.25;3.00;;;5.60;99.90;;;;;;5065587;28;20485;-54
2021/04/16 08:34:44;;;;;;;3.10;2.40;;;5.60;99.90;;;;;;5067358;28;20127;-53
2021/04/16 08:37:18;;;;;;;3.50;2.80;;;5.80;99.90;;;;;;5068258;28;20032;-54
2021/04/16 08:39:44;;;;;;;2.97;2.58;;;5.80;99.90;;;;;;5069202;28;20040;-54
2021/04/16 08:42:17;;;;;;;3.28;2.30;;;5.70;99.90;;;;;;5067818;28;20036;-54
2021/04/16 08:44:54;;;;;;;4.60;2.50;;;6.00;99.90;;;;;;5068566;28;20021;-52
2021/04/16 08:47:54;;;;;;;3.08;1.98;;;6.10;99.90;;;;;;5067961;28;20414;-54
2021/04/16 08:50:25;;;;;;;3.40;2.38;;;6.20;99.90;;;;;;5064617;28;20040;-51
2021/04/16 08:53:00;;;;;;;4.10;2.50;;;6.30;99.90;;;;;;5068370;28;20033;-52
2021/04/16 08:55:33;;;;;;;3.65;2.90;;;6.20;99.90;;;;;;5068009;28;20059;-53
2021/04/16 08:58:32;;;;;;;5.03;2.75;;;6.10;99.90;;;;;;5068126;28;20032;-54
2021/04/16 09:01:06;;;;;;;4.22;2.78;;;6.10;99.90;;;;;;5067976;28;20028;-52
2021/04/16 09:04:19;;;;;;;6.53;4.10;;;6.40;99.90;;;;;;5068036;28;20255;-53
2021/04/16 09:06:49;;;;;;;4.32;2.92;;;6.50;99.90;;;;;;5051055;28;20047;-54
2021/04/16 09:09:56;;;;;;;3.85;2.75;;;6.60;99.90;;;;;;5067648;28;20514;-53
2021/04/16 09:12:40;;;;;;;4.30;2.80;;;6.80;99.90;;;;;;5066773;28;20095;-53
2021/04/16 09:15:21;;;;;;;4.50;2.87;;;6.60;99.90;;;;;;5054487;28;20056;-56
2021/04/16 09:17:52;;;;;;;4.05;2.38;;;6.50;99.90;;;;;;5048542;28;20275;-52
2021/04/16 09:20:33;;;;;;;4.32;2.35;;;6.70;99.90;;;;;;5061889;28;20047;-54
2021/04/16 09:23:00;;;;;;;3.00;2.10;;;6.90;99.90;;;;;;5056804;28;20426;-55
2021/04/16 09:25:32;;;;;;;4.47;3.03;;;7.00;99.90;;;;;;5068806;28;20129;-54
2021/04/16 09:28:22;;;;;;;6.20;3.20;;;6.70;99.90;;;;;;5068245;28;20060;-55
2021/04/16 09:31:24;;;;;;;5.60;3.75;;;6.70;99.90;;;;;;5060706;28;20082;-55
2021/04/16 09:34:22;;;;;;;3.40;2.70;;;6.70;99.90;;;;;;5055888;28;20024;-56
2021/04/16 09:37:13;;;;;;;2.58;1.92;;;7.10;99.90;;;;;;5065807;28;20100;-56
2021/04/16 09:39:41;;;;;;;3.42;2.17;;;7.30;99.90;;;;;;5066361;28;20120;-55
2021/04/16 09:42:26;;;;;;;5.22;2.40;;;7.30;99.90;;;;;;5064895;28;20024;-55
2021/04/16 09:44:57;;;;;;;5.05;2.17;;;7.10;99.90;;;;;;5064707;28;20398;-54
2021/04/16 09:47:42;;;;;;;3.80;2.35;;;7.20;99.90;;;;;;5066286;28;20032;-55
2021/04/16 09:50:24;;;;;;;3.25;2.60;;;7.20;99.90;;;;;;5064895;28;20028;-55
2021/04/16 09:53:13;;;;;;;4.43;3.30;;;7.10;99.90;;;;;;5055231;28;20038;-58
2021/04/16 09:56:05;;;;;;;4.53;2.72;;;7.10;99.90;;;;;;5062943;28;20059;-56
2021/04/16 10:00:56;;;;;;;4.80;3.20;;;7.30;99.90;;;;;;5065533;28;20103;-56
2021/04/16 10:03:49;;;;;;;3.78;2.50;;;7.30;99.90;;;;;;5066003;28;20043;-55
2021/04/16 10:06:35;;;;;;;3.33;2.80;;;7.90;99.90;;;;;;5045483;28;20496;-57
2021/04/16 10:09:05;;;;;;;3.45;2.53;;;7.60;99.90;;;;;;5045609;28;20238;-57
2021/04/16 10:11:32;;;;;;;2.85;2.20;;;7.70;99.90;;;;;;5046806;28;20029;-57
2021/04/16 10:14:20;;;;;;;2.03;1.70;;;7.90;99.80;;;;;;5057470;28;20020;-56
2021/04/16 10:16:48;;;;;;;2.67;1.88;;;8.10;99.90;;;;;;5066280;28;20020;-57
2021/04/16 10:19:18;;;;;;;3.53;2.55;;;8.20;99.80;;;;;;5065642;28;20025;-56
2021/04/16 10:21:44;;;;;;;5.75;2.85;;;8.00;98.60;;;;;;5065022;28;20028;-57
2021/04/16 10:25:42;;;;;;;5.57;3.40;;;7.90;98.80;;;;;;5064815;28;20032;-57
2021/04/16 11:18:12;;;;;;;2.47;1.77;;;9.20;97.60;;;;;;5064207;28;20032;-57
2021/04/16 12:39:03;;;;;;;2.30;1.95;;;10.40;96.10;;;;;;5064276;28;20593;-55
2021/04/16 12:41:14;;;;;;;2.28;1.88;;;10.30;94.90;;;;;;5058410;28;20064;-56
2021/04/16 12:43:40;;;;;;;2.80;2.00;;;10.30;95.10;;;;;;5064291;28;20032;-56
2021/04/16 12:46:08;;;;;;;4.00;2.00;;;10.20;94.90;;;;;;5063987;28;20036;-54
2021/04/16 12:48:34;;;;;;;3.40;2.45;;;10.30;94.70;;;;;;5064933;28;20086;-56
2021/04/16 12:51:00;;;;;;;3.90;2.22;;;10.00;95.60;;;;;;5064338;28;20020;-56
2021/04/16 12:53:25;;;;;;;1.90;1.70;;;10.10;95.10;;;;;;5065018;28;20576;-55
2021/04/16 12:55:52;;;;;;;2.70;2.20;;;10.20;95.40;;;;;;5064483;28;20044;-55
2021/04/16 12:58:27;;;;;;;2.53;1.88;;;10.30;95.60;;;;;;5063867;28;20028;-55
2021/04/16 13:00:54;;;;;;;1.92;1.58;;;10.30;95.40;;;;;;5064954;28;20029;-55
2021/04/16 13:03:22;;;;;;;2.85;1.77;;;10.30;95.30;;;;;;5064076;28;20028;-56
2021/04/16 13:05:49;;;;;;;1.90;1.60;;;10.30;95.50;;;;;;5064245;28;20036;-55
2021/04/16 13:08:15;;;;;;;2.83;2.08;;;10.40;95.50;;;;;;5062616;28;20116;-54
2021/04/16 13:10:41;;;;;;;5.55;3.38;;;10.20;95.10;;;;;;5063469;28;20119;-56
2021/04/16 13:13:07;;;;;;;5.55;3.47;;;9.80;95.80;;;;;;5062239;28;20402;-55
2021/04/16 13:15:32;;;;;;;4.72;3.17;;;9.80;95.60;;;;;;5064609;28;20025;-55
2021/04/16 13:18:05;;;;;;;3.28;2.45;;;9.80;95.80;;;;;;5066033;28;20024;-56
2021/04/16 13:20:30;;;;;;;2.80;2.10;;;9.80;95.70;;;;;;5067844;28;20078;-56
2021/04/16 13:22:56;;;;;;;2.78;1.83;;;10.00;96.20;;;;;;5068188;28;20028;-55
2021/04/16 13:25:28;;;;;;;4.43;1.92;;;10.00;95.80;;;;;;5067549;28;20100;-55
2021/04/16 13:27:54;;;;;;;4.00;3.17;;;9.90;95.60;;;;;;5068359;28;20457;-55
2021/04/16 13:30:23;;;;;;;6.38;3.00;;;9.50;96.50;;;;;;5067425;28;20043;-55
2021/04/16 13:32:52;;;;;;;3.95;3.22;;;9.40;97.40;;;;;;5067636;28;20016;-55
2021/04/16 13:35:29;;;;;;;4.10;2.67;;;9.40;97.10;;;;;;5067306;28;20276;-55
2021/04/16 13:37:58;;;;;;;3.88;3.00;;;9.40;96.60;;;;;;5068333;28;20025;-56
2021/04/16 13:40:25;;;;;;;2.88;2.53;;;9.40;96.20;;;;;;5067694;28;20523;-55
2021/04/16 13:42:51;;;;;;;2.53;2.08;;;9.50;96.50;;;;;;5067316;28;20056;-55
2021/04/16 13:45:16;;;;;;;2.97;2.10;;;9.60;96.30;;;;;;5066913;28;20079;-55
2021/04/16 13:47:46;;;;;;;3.42;2.13;;;9.60;96.20;;;;;;5067376;28;20443;-56
2021/04/16 13:50:14;;;;;;;3.60;2.47;;;9.50;96.30;;;;;;5056807;28;20463;-56
2021/04/16 13:52:40;;;;;;;3.42;2.75;;;9.60;96.90;;;;;;5047728;28;20078;-56
2021/04/16 13:55:06;;;;;;;2.38;2.03;;;9.70;96.70;;;;;;5047048;28;20037;-54
2021/04/16 13:57:32;;;;;;;2.83;1.83;;;9.70;96.90;;;;;;5046684;28;20017;-55
2021/04/16 13:59:58;;;;;;;2.30;1.98;;;9.70;96.60;;;;;;5046407;28;20036;-55
2021/04/16 14:02:27;;;;;;;2.45;1.80;;;9.70;96.20;;;;;;5046533;28;20586;-56
2021/04/16 14:04:53;;;;;;;1.73;1.63;;;9.80;96.30;;;;;;5059141;28;20036;-56
2021/04/16 14:07:21;;;;;;;2.47;1.70;;;9.90;96.40;;;;;;5066602;28;20025;-56
2021/04/16 14:09:47;;;;;;;2.63;1.98;;;9.80;96.20;;;;;;5067867;28;20593;-56
2021/04/16 14:12:13;;;;;;;3.05;2.20;;;9.70;96.30;;;;;;5067550;28;20105;-56
2021/04/16 14:14:39;;;;;;;2.03;1.83;;;9.80;96.20;;;;;;5068417;28;20020;-56
2021/04/16 14:17:08;;;;;;;1.90;1.70;;;9.90;95.80;;;;;;5056667;28;20549;-55
2021/04/16 14:19:41;;;;;;;1.95;1.75;;;9.80;96.00;;;;;;5062817;28;20089;-55
2021/04/16 14:22:11;;;;;;;3.70;2.40;;;9.80;95.70;;;;;;5049348;28;20021;-55
2021/04/16 14:24:37;;;;;;;2.38;2.05;;;9.70;95.60;;;;;;5056088;28;20600;-55
2021/04/16 14:27:03;;;;;;;2.05;1.70;;;9.80;95.60;;;;;;5064748;28;20166;-55
2021/04/16 14:29:29;;;;;;;4.75;3.25;;;9.90;95.80;;;;;;5067493;28;20029;-55
2021/04/16 14:31:55;;;;;;;4.95;3.05;;;9.70;95.60;;;;;;5068827;28;20488;-55
2021/04/16 14:34:25;;;;;;;4.80;3.30;;;9.80;95.80;;;;;;5068380;28;20162;-56
2021/04/16 14:36:51;;;;;;;6.90;3.83;;;9.70;95.60;;;;;;5068287;28;20478;-55
2021/04/16 14:39:17;;;;;;;6.15;3.40;;;9.70;95.60;;;;;;5068070;28;20027;-56
2021/04/16 14:41:43;;;;;;;4.78;3.25;;;9.80;95.50;;;;;;5067587;28;20029;-55
2021/04/16 14:44:17;;;;;;;5.40;3.22;;;10.00;95.40;;;;;;5070741;28;20035;-56
2021/04/16 14:46:49;;;;;;;5.57;3.45;;;10.10;95.30;;;;;;5066365;28;20395;-55
2021/04/16 14:49:17;;;;;;;3.95;3.30;;;9.90;95.40;;;;;;5066912;28;20031;-56
2021/04/16 14:51:43;;;;;;;4.53;2.92;;;9.90;95.30;;;;;;5067125;28;20402;-56
2021/04/16 14:54:36;;;;;;;4.38;2.92;;;10.10;95.40;;;;;;5066849;28;20029;-56
2021/04/16 14:57:07;;;;;;;6.25;4.25;;;10.10;95.00;;;;;;5067531;28;20017;-56
2021/04/16 14:59:41;;;;;;;5.43;3.40;;;10.00;95.00;;;;;;5067698;28;20020;-57
2021/04/16 15:02:07;;;;;;;5.68;3.75;;;10.00;95.20;;;;;;5066835;28;20029;-56
2021/04/16 15:04:34;;;;;;;4.95;3.50;;;10.10;95.60;;;;;;5065904;28;20029;-56
2021/04/16 15:07:06;;;;;;;6.20;2.92;;;10.00;95.50;;;;;;5065309;28;20483;-56
2021/04/16 15:09:39;;;;;;;4.45;3.03;;;10.10;95.50;;;;;;5067156;28;20047;-56
2021/04/16 15:12:05;;;;;;;6.18;4.30;;;10.20;94.70;;;;;;5067041;28;20013;-56
2021/04/16 15:14:32;;;;;;;6.63;4.13;;;10.10;95.00;;;;;;5066915;28;20119;-56
2021/04/16 15:16:58;;;;;;;7.72;4.25;;;10.20;94.90;;;;;;5066078;28;20035;-56
2021/04/16 15:19:39;;;;;;;8.35;4.85;;;10.10;94.80;;;;;;5065860;28;20059;-56
2021/04/16 15:22:13;;;;;;;7.88;3.85;;;10.00;94.90;;;;;;5067055;28;20119;-56
2021/04/16 15:24:41;;;;;;;7.35;4.97;;;10.00;95.10;;;;;;5065870;28;20654;-56